Ctr Moriches, New York
Current Conditions -  °F | °C
As of 12:56 PM on Thursday 27 Nov 2014 (Local Time) from KHWV Reporting Station
Overcast Overcast  
Wind Chill: 33°   Ceiling: 1500
Heat Index: 38°   Visibility: 10mi
Dew Point: 33°   Wind: 7mph
Humidity: 83%   Direction: NA
Pressure: 29.97"   Gusts: NA
Location:  40.8046°N, 72.7931°W
Report Text: KHWV 271756Z AUTO VRB06KT 10SM OVC015 03/01 A2997 RMK AO2 RAB02E16 SLP147 P0000 60000 T00330006 10033 20017 58008 TSNO $
Loading
Personal Weather Stations






























Interactive Weather Map New forecast layout! Learn more

10-Day Weather Forecast

Advertisements
Track Severe Weather on mobile